Flight Track Log - Related Links

Times and Time Zones

All times are in EDT time to prevent confusion due to time zone crossing. See the N625FT flight status page for this flight to view local times or setup timezone preferences in your user account.

Time Position Orientation Groundspeed Altitude Reporting Facility
EDT Latitude Longitude Course Direction KTS MPH feet Rate Location/Type
Wed 05:57:15 PM 28.1677 -80.6667 344° North  Level FlightAware Approximate
Wed 05:58:15 PM 28.1965 -80.6763 328° Northwest  Level FlightAware Approximate
Wed 05:59:15 PM 28.2210 -80.6938 349° North  Level FlightAware Approximate
Wed 06:00:15 PM 28.2499 -80.7000 344° North  Level FlightAware Approximate
Wed 06:01:15 PM 28.2788 -80.7093 344° North  Level FlightAware Approximate
Wed 06:02:15 PM 28.3077 -80.7187 344° North  Level FlightAware Approximate
Wed 06:03:15 PM 28.3366 -80.7280 344° North  Level FlightAware Approximate
Wed 06:04:15 PM 28.3655 -80.7374 344° North  Level FlightAware Approximate
Wed 06:05:15 PM 28.3944 -80.7468 344° North  Level FlightAware Approximate
Wed 06:06:15 PM 28.4233 -80.7561 358° North  Level FlightAware Approximate
Wed 06:07:15 PM 28.4509 -80.7570 343° North  Level FlightAware Approximate
Wed 06:08:15 PM 28.4797 -80.7668 343° North  Level FlightAware Approximate
Wed 06:09:15 PM 28.5085 -80.7766 332° Northwest  Level FlightAware Approximate
Wed 06:10:15 PM 28.5349 -80.7925 344° North  Level FlightAware Approximate
Wed 06:11:15 PM 28.5638 -80.8018 344° North  Level FlightAware Approximate
Wed 06:12:15 PM 28.5927 -80.8112 344° North  Level FlightAware Approximate
Wed 06:13:15 PM 28.6180 -80.8195 344° North  Level FlightAware Approximate
Wed 06:14:15 PM 28.6432 -80.8277 344° North  Level FlightAware Approximate
Wed 06:15:15 PM 28.6684 -80.8359 344° North  Level FlightAware Approximate
Wed 06:16:15 PM 28.6937 -80.8441 344° North  Level FlightAware Approximate
Wed 06:17:15 PM 28.7189 -80.8523 344° North  Level FlightAware Approximate
Wed 06:18:15 PM 28.7442 -80.8606 344° North  Level FlightAware Approximate
Wed 06:19:15 PM 28.7694 -80.8688 344° North  Level FlightAware Approximate
Wed 06:20:15 PM 28.7946 -80.8771 344° North  Level FlightAware Approximate
Wed 06:21:15 PM 28.8199 -80.8853 344° North  Level FlightAware Approximate
Wed 06:22:15 PM 28.8451 -80.8935 294° West  Level FlightAware Approximate
Wed 06:23:15 PM 28.8550 -80.9192 354° North  Level FlightAware Approximate
Wed 06:24:15 PM 28.8811 -80.9225 354° North  Level FlightAware Approximate
Wed 06:25:15 PM 28.9072 -80.9258 354° North  Level FlightAware Approximate
Wed 06:26:15 PM 28.9332 -80.9291 354° North  Level FlightAware Approximate
Wed 06:27:15 PM 28.9593 -80.9324 358° North  Level FlightAware Approximate
Wed 06:28:15 PM 28.9855 -80.9333 349° North  Level FlightAware Approximate
Wed 06:29:15 PM 29.0113 -80.9390 349° North  Level Estimated
Wed 06:30:15 PM 29.0371 -80.9448 349° North  Level Estimated
Wed 06:31:15 PM 29.0629 -80.9505 169° South  Level Estimated
Wed 06:32:15 PM 29.0371 -80.9448 38° Northeast  Level Estimated
Wed 06:33:15 PM 29.0500 -80.9333 293° West  Level FlightAware Approximate
Wed 06:34:15 PM 29.0601 -80.9610 113° Southeast  Level Estimated
Wed 06:35:15 PM 29.0502 -80.9338 293° West  Level Estimated
Wed 06:36:15 PM 29.0601 -80.9610 113° Southeast  Level Estimated
Wed 06:37:15 PM 29.0502 -80.9338 293° West  Level Estimated
Wed 06:38:15 PM 29.0601 -80.9610 113° Southeast  Level Estimated
Wed 06:39:15 PM 29.0500 -80.9333 293° West  Level FlightAware Approximate
Wed 06:40:15 PM 29.0600 -80.9606 113° Southeast  Level Estimated
Wed 06:41:15 PM 29.0500 -80.9333 293° West  Level FlightAware Approximate
Wed 06:42:15 PM 29.0600 -80.9606 293° West  Level Estimated

Login

Don't have an account? Register now (free) for customized features, flight alerts, and more!